createdAt,value
2022-11-16T00:00:00.361Z,96684.44
2022-11-16T00:02:32.372Z,96663.88
2022-11-16T00:05:00.207Z,96660.25
2022-11-16T00:07:28.115Z,96669.13
2022-11-16T00:09:56.025Z,96657.44
2022-11-16T00:12:25.304Z,96653.69
2022-11-16T00:14:53.214Z,96639.03
2022-11-16T00:17:21.122Z,96644.28
2022-11-16T00:19:49.058Z,96633.94
2022-11-16T00:22:16.966Z,96660.44
2022-11-16T00:24:44.904Z,96655.50
2022-11-16T00:27:12.813Z,96656.16
2022-11-16T00:29:42.001Z,96655.34
2022-11-16T00:32:09.799Z,96647.59
2022-11-16T00:34:37.630Z,96617.00
2022-11-16T00:37:05.599Z,96638.22
2022-11-16T00:39:34.068Z,96639.38
2022-11-16T00:42:01.919Z,96587.94
2022-11-16T00:44:29.831Z,96623.91
2022-11-16T00:46:59.122Z,96618.66
2022-11-16T00:49:27.171Z,96616.69
2022-11-16T00:51:55.756Z,96621.94
2022-11-16T00:54:23.694Z,96635.75
2022-11-16T00:56:51.604Z,96640.72
2022-11-16T00:59:19.429Z,96621.94
2022-11-16T01:01:47.399Z,96603.88
2022-11-16T01:04:16.937Z,96603.03
2022-11-16T01:06:44.790Z,96632.28
2022-11-16T01:09:12.659Z,96610.75
2022-11-16T01:11:58.971Z,96612.56
2022-11-16T01:14:26.944Z,96627.19
2022-11-16T01:16:55.065Z,96603.22
2022-11-16T01:19:24.369Z,96634.94
2022-11-16T01:21:52.324Z,96625.22
2022-11-16T01:24:20.240Z,96621.94
2022-11-16T01:26:48.107Z,96597.31
2022-11-16T01:29:17.370Z,96611.75
2022-11-16T01:31:45.213Z,96612.75
2022-11-16T01:34:13.315Z,96603.22
2022-11-16T01:36:42.531Z,96596.66
2022-11-16T01:39:12.908Z,96582.03
2022-11-16T01:41:41.626Z,96582.84
2022-11-16T01:44:43.085Z,96572.31
2022-11-16T01:47:14.020Z,96581.19
2022-11-16T01:49:45.739Z,96546.69
2022-11-16T01:52:20.200Z,96537.34
2022-11-16T01:54:51.093Z,96571.03
2022-11-16T01:57:23.323Z,96550.31
2022-11-16T01:59:56.413Z,96541.63
2022-11-16T02:02:24.449Z,96567.41
2022-11-16T02:04:54.964Z,96534.88
2022-11-16T02:07:57.531Z,96540.78
2022-11-16T02:10:36.012Z,96531.25
2022-11-16T02:13:17.575Z,96569.03
2022-11-16T02:15:49.211Z,96549.97
2022-11-16T02:18:26.797Z,96530.63
2022-11-16T02:21:21.599Z,96575.94
2022-11-16T02:24:14.500Z,96574.94
2022-11-16T02:27:12.024Z,96538.97
2022-11-16T02:29:43.833Z,96527.97
2022-11-16T02:32:17.193Z,96524.38
2022-11-16T02:34:50.309Z,96539.16
2022-11-16T02:37:21.682Z,96525.34
2022-11-16T02:39:53.767Z,96511.69
2022-11-16T02:42:26.002Z,96513.34
2022-11-16T02:44:58.049Z,96499.53
2022-11-16T02:47:30.072Z,96506.59
2022-11-16T02:50:04.072Z,96531.59
2022-11-16T02:52:31.972Z,96526.34
2022-11-16T02:54:59.732Z,96471.81
2022-11-16T02:57:43.843Z,96472.28
2022-11-16T03:00:19.566Z,96480.00
2022-11-16T03:02:55.799Z,96486.06
2022-11-16T03:05:32.981Z,96468.19
2022-11-16T03:08:13.375Z,96473.44
2022-11-16T03:11:02.190Z,96463.25
2022-11-16T03:13:34.428Z,96475.75
2022-11-16T03:16:09.430Z,96474.25
2022-11-16T03:18:39.907Z,96462.94
2022-11-16T03:21:14.939Z,96474.25
2022-11-16T03:23:43.565Z,96458.00
2022-11-16T03:26:14.916Z,96472.63
2022-11-16T03:28:51.974Z,96475.09
2022-11-16T03:31:28.073Z,96466.53
2022-11-16T03:33:59.565Z,96464.09
2022-11-16T03:36:32.081Z,96462.44
2022-11-16T03:39:03.930Z,96446.19
2022-11-16T03:41:35.377Z,96476.88
2022-11-16T03:44:04.901Z,96490.19
2022-11-16T03:46:34.098Z,96524.66
2022-11-16T03:49:02.272Z,96497.41
2022-11-16T03:51:30.168Z,96470.66
2022-11-16T03:53:57.940Z,96473.44
2022-11-16T03:56:25.813Z,96498.72
2022-11-16T03:58:53.722Z,96481.00
2022-11-16T04:01:21.648Z,96476.06
2022-11-16T04:03:50.959Z,96451.44
2022-11-16T04:06:36.119Z,96468.34
2022-11-16T04:09:21.670Z,96485.25
2022-11-16T04:12:07.220Z,96461.28
2022-11-16T04:14:53.037Z,96458.00
2022-11-16T04:17:44.384Z,96485.25
2022-11-16T04:20:32.409Z,96492.00
2022-11-16T04:23:21.797Z,96502.16
2022-11-16T04:25:51.155Z,96472.44
2022-11-16T04:28:22.682Z,96474.09
2022-11-16T04:31:13.218Z,96457.19
2022-11-16T04:33:58.765Z,96468.19
2022-11-16T04:36:45.814Z,96469.81
2022-11-16T04:39:13.844Z,96479.34
2022-11-16T04:41:59.176Z,96458.00
2022-11-16T04:44:47.430Z,96429.94
2022-11-16T04:47:14.291Z,96426.31
2022-11-16T04:49:42.172Z,96428.13
2022-11-16T04:52:11.399Z,96424.69
2022-11-16T04:54:39.545Z,96436.66
2022-11-16T04:57:07.335Z,96434.03
2022-11-16T04:59:35.199Z,96438.31
2022-11-16T05:02:12.032Z,96475.91
2022-11-16T05:04:42.017Z,96443.56
2022-11-16T05:07:12.982Z,96429.78
2022-11-16T05:09:43.070Z,96434.03
2022-11-16T05:12:11.654Z,96418.94
2022-11-16T05:14:39.517Z,96416.97
2022-11-16T05:17:07.630Z,96433.22
2022-11-16T05:19:53.253Z,96422.88
2022-11-16T05:22:22.798Z,96440.94
2022-11-16T05:24:50.564Z,96436.34
2022-11-16T05:27:20.344Z,96441.59
2022-11-16T05:29:49.535Z,96444.56
2022-11-16T05:32:18.323Z,96430.75
2022-11-16T05:34:47.024Z,96432.22
2022-11-16T05:37:15.463Z,96436.50
2022-11-16T05:39:45.170Z,96448.47
2022-11-16T05:42:13.129Z,96430.59
2022-11-16T05:44:40.984Z,96424.84
2022-11-16T05:47:08.839Z,96460.47
2022-11-16T05:49:36.698Z,96455.38
2022-11-16T05:52:04.986Z,96461.28
2022-11-16T05:54:33.030Z,96434.03
2022-11-16T05:57:02.295Z,96440.94
2022-11-16T05:59:30.419Z,96415.34
2022-11-16T06:01:58.557Z,96429.78
2022-11-16T06:04:26.640Z,96462.94
2022-11-16T06:06:54.536Z,96412.69
2022-11-16T06:09:22.547Z,96427.97
2022-11-16T06:11:50.424Z,96419.59
2022-11-16T06:14:19.723Z,96404.81
2022-11-16T06:16:47.580Z,96409.44
2022-11-16T06:19:15.383Z,96396.59
2022-11-16T06:21:43.312Z,96402.66
2022-11-16T06:24:11.225Z,96400.88
2022-11-16T06:26:39.000Z,96406.78
2022-11-16T06:29:06.975Z,96412.06
2022-11-16T06:31:36.883Z,96436.50
2022-11-16T06:34:04.913Z,96425.50
2022-11-16T06:36:35.028Z,96434.03
2022-11-16T06:39:03.276Z,96418.59
2022-11-16T06:41:32.164Z,96428.13
2022-11-16T06:44:00.198Z,96425.50
2022-11-16T06:46:28.369Z,96419.44
2022-11-16T06:48:58.420Z,96416.97
2022-11-16T06:51:26.257Z,96435.03
2022-11-16T06:53:54.336Z,96449.81
2022-11-16T06:56:22.915Z,96457.66
2022-11-16T06:58:53.525Z,96439.78
2022-11-16T07:01:21.818Z,96431.25
2022-11-16T07:03:49.729Z,96406.28
2022-11-16T07:06:19.184Z,96390.38
2022-11-16T07:08:47.268Z,96405.16
2022-11-16T07:11:15.039Z,96379.88
2022-11-16T07:13:42.926Z,96430.75
2022-11-16T07:16:12.553Z,96458.81
2022-11-16T07:18:41.842Z,96428.78
2022-11-16T07:21:11.280Z,96428.78
2022-11-16T07:23:42.347Z,96427.97
2022-11-16T07:26:11.497Z,96447.50
2022-11-16T07:28:44.859Z,96440.94
2022-11-16T07:31:16.590Z,96428.78
2022-11-16T07:33:44.306Z,96440.44
2022-11-16T07:36:14.375Z,96472.94
2022-11-16T07:38:43.566Z,96469.00
2022-11-16T07:41:13.646Z,96452.59
2022-11-16T07:43:42.129Z,96475.72
2022-11-16T07:46:45.297Z,96486.72
2022-11-16T07:49:01.601Z,96508.91
2022-11-16T07:51:29.571Z,96542.25
2022-11-16T07:53:58.800Z,96522.38
2022-11-16T07:56:27.229Z,96510.88
2022-11-16T07:58:55.663Z,96519.94
2022-11-16T08:01:24.572Z,96513.19
2022-11-16T08:03:54.969Z,96534.53
2022-11-16T08:06:25.918Z,96556.56
2022-11-16T08:08:58.237Z,96542.25
2022-11-16T08:11:28.677Z,96563.44
2022-11-16T08:13:57.455Z,96545.06
2022-11-16T08:16:25.224Z,96548.81
2022-11-16T08:18:53.103Z,96549.97
2022-11-16T08:21:21.187Z,96538.16
2022-11-16T08:23:55.194Z,96536.84
2022-11-16T08:26:26.600Z,96557.53
2022-11-16T08:28:57.172Z,96583.16
2022-11-16T08:31:27.408Z,96582.03
2022-11-16T08:33:56.513Z,96620.63
2022-11-16T08:36:24.475Z,96636.75
2022-11-16T08:38:53.215Z,96616.34
2022-11-16T08:41:22.780Z,96635.09
2022-11-16T08:43:53.364Z,96668.31
2022-11-16T08:46:23.070Z,96639.38
2022-11-16T08:48:55.735Z,96647.94
2022-11-16T08:51:24.358Z,96653.84
2022-11-16T08:53:57.010Z,96650.22
2022-11-16T08:56:27.116Z,96670.94
2022-11-16T08:58:58.919Z,96701.84
2022-11-16T09:01:30.018Z,96678.50
2022-11-16T09:03:58.494Z,96659.44
2022-11-16T09:06:27.926Z,96611.09
2022-11-16T09:08:56.459Z,96575.13
2022-11-16T09:11:25.938Z,96577.91
2022-11-16T09:13:55.808Z,96606.97
2022-11-16T09:16:24.709Z,96600.06
2022-11-16T09:18:54.013Z,96580.69
2022-11-16T09:21:23.713Z,96583.97
2022-11-16T09:23:52.012Z,96573.63
2022-11-16T09:26:22.820Z,96600.91
2022-11-16T09:28:55.725Z,96604.53
2022-11-16T09:31:24.126Z,96625.56
2022-11-16T09:33:52.080Z,96568.38
2022-11-16T09:36:21.893Z,96592.34
2022-11-16T09:41:57.536Z,96595.00
2022-11-16T09:44:49.917Z,96618.00
2022-11-16T09:47:22.102Z,96643.66
2022-11-16T09:49:58.152Z,96624.25
2022-11-16T09:52:34.299Z,96643.50
2022-11-16T09:55:16.238Z,96598.97
2022-11-16T09:57:45.399Z,96676.84
2022-11-16T10:00:18.007Z,96681.94
2022-11-16T10:02:49.576Z,96693.78
2022-11-16T10:05:22.533Z,96689.66
2022-11-16T10:07:59.235Z,96711.03
2022-11-16T10:10:36.015Z,96701.50
2022-11-16T10:13:17.696Z,96725.34
2022-11-16T10:16:00.333Z,96725.50
2022-11-16T10:18:41.815Z,96715.31
2022-11-16T10:21:30.055Z,96707.44
2022-11-16T10:24:25.085Z,96731.44
2022-11-16T10:27:06.920Z,96757.94
2022-11-16T10:29:47.926Z,96770.59
2022-11-16T10:32:26.096Z,96775.69
2022-11-16T10:34:55.960Z,96772.41
2022-11-16T10:37:29.295Z,96760.56
2022-11-16T10:39:59.383Z,96794.59
2022-11-16T10:42:35.515Z,96788.69
2022-11-16T10:45:13.992Z,96825.19
2022-11-16T10:47:46.759Z,96816.66
2022-11-16T10:50:32.977Z,96759.56
2022-11-16T10:53:01.961Z,96789.50
2022-11-16T10:55:31.185Z,96794.94
2022-11-16T10:58:00.998Z,96813.53
2022-11-16T11:00:36.712Z,96841.66
2022-11-16T11:03:04.735Z,96824.38
2022-11-16T11:05:32.863Z,96828.00
2022-11-16T11:08:03.243Z,96818.47
2022-11-16T11:10:34.792Z,96821.91
2022-11-16T11:13:18.619Z,96820.09
2022-11-16T11:15:48.049Z,96793.63
2022-11-16T11:18:28.181Z,96819.44
2022-11-16T11:21:08.293Z,96832.28
2022-11-16T11:23:43.641Z,96815.00
2022-11-16T11:26:35.943Z,96797.25
2022-11-16T11:29:18.014Z,96808.09
2022-11-16T11:31:48.885Z,96771.59
2022-11-16T11:34:20.137Z,96811.56
2022-11-16T11:36:51.174Z,96800.84
2022-11-16T11:39:31.917Z,96780.13
2022-11-16T11:42:21.334Z,96803.81
2022-11-16T11:44:57.061Z,96813.69
2022-11-16T11:47:56.720Z,96819.28
2022-11-16T11:50:22.441Z,96839.34
2022-11-16T11:53:06.166Z,96851.06
2022-11-16T11:55:34.796Z,96797.25
2022-11-16T11:58:07.151Z,96780.97
2022-11-16T12:00:44.755Z,96813.53
2022-11-16T12:03:36.940Z,96796.25
2022-11-16T12:06:11.046Z,96772.25
2022-11-16T12:09:03.757Z,96733.75
2022-11-16T12:11:42.340Z,96736.56
2022-11-16T12:14:27.896Z,96772.25
2022-11-16T12:17:07.159Z,96781.63
2022-11-16T12:19:47.943Z,96805.13
2022-11-16T12:22:35.114Z,96819.28
2022-11-16T12:25:19.567Z,96816.66
2022-11-16T12:27:57.830Z,96802.19
2022-11-16T12:30:27.397Z,96802.34
2022-11-16T12:33:11.378Z,96823.56
2022-11-16T12:35:49.707Z,96808.09
2022-11-16T12:38:49.584Z,96804.63
2022-11-16T12:41:49.798Z,96821.91
2022-11-16T12:44:27.272Z,96793.63
2022-11-16T12:47:07.626Z,96806.28
2022-11-16T12:50:09.031Z,96789.34
2022-11-16T12:53:08.526Z,96780.78
2022-11-16T12:55:44.079Z,96785.06
2022-11-16T12:58:20.398Z,96760.22
2022-11-16T13:01:02.618Z,96734.59
2022-11-16T13:03:40.164Z,96720.25
2022-11-16T13:06:12.767Z,96724.38
2022-11-16T13:08:50.722Z,96713.69
2022-11-16T13:11:23.098Z,96735.88
2022-11-16T13:13:57.127Z,96739.03
2022-11-16T13:16:25.851Z,96726.50
2022-11-16T13:18:55.923Z,96713.00
2022-11-16T13:21:32.721Z,96657.94
2022-11-16T13:24:10.661Z,96655.16
2022-11-16T13:26:46.036Z,96623.59
2022-11-16T13:29:23.422Z,96627.56
2022-11-16T13:31:59.025Z,96633.13
2022-11-16T13:34:33.792Z,96619.31
2022-11-16T13:37:01.822Z,96622.13
2022-11-16T13:40:07.268Z,96627.88
2022-11-16T13:42:38.240Z,96625.56
2022-11-16T13:45:09.819Z,96620.16
2022-11-16T13:47:38.899Z,96631.16
2022-11-16T13:50:19.420Z,96624.59
2022-11-16T13:55:42.694Z,96581.19
2022-11-16T13:58:20.035Z,96559.50
2022-11-16T14:01:01.658Z,96569.03
2022-11-16T14:03:38.751Z,96545.69
2022-11-16T14:06:47.195Z,96551.13
2022-11-16T14:09:42.680Z,96512.34
2022-11-16T14:12:53.351Z,96509.91
2022-11-16T14:15:23.378Z,96506.78
2022-11-16T14:17:53.414Z,96500.88
2022-11-16T14:21:00.189Z,96507.59
2022-11-16T14:23:39.776Z,96487.88
2022-11-16T14:26:17.435Z,96497.41
2022-11-16T14:28:59.834Z,96465.38
2022-11-16T14:31:32.020Z,96455.53
2022-11-16T14:34:01.809Z,96459.78
2022-11-16T14:36:39.512Z,96457.97
2022-11-16T14:39:31.552Z,96452.06
2022-11-16T14:42:02.687Z,96436.66
2022-11-16T14:44:35.264Z,96436.97
2022-11-16T14:47:04.155Z,96451.41
2022-11-16T14:49:35.641Z,96429.59
2022-11-16T14:52:06.250Z,96444.34
2022-11-16T14:54:41.222Z,96439.44
2022-11-16T14:57:18.851Z,96423.03
2022-11-16T14:59:46.789Z,96433.69
2022-11-16T15:02:21.226Z,96401.03
2022-11-16T15:04:50.806Z,96392.66
2022-11-16T15:07:20.032Z,96407.75
2022-11-16T15:09:51.475Z,96390.69
2022-11-16T15:12:38.878Z,96365.88
2022-11-16T15:15:14.367Z,96360.63
2022-11-16T15:17:44.245Z,96371.97
2022-11-16T15:20:19.713Z,96371.97
2022-11-16T15:22:49.209Z,96379.53
2022-11-16T15:25:30.867Z,96373.63
2022-11-16T15:28:01.116Z,96361.78
2022-11-16T15:30:32.758Z,96326.03
2022-11-16T15:33:03.763Z,96312.25
2022-11-16T15:35:33.488Z,96325.03
2022-11-16T15:38:02.938Z,96328.81
2022-11-16T15:40:33.741Z,96317.50
2022-11-16T15:43:04.986Z,96313.22
2022-11-16T15:45:33.827Z,96314.88
2022-11-16T15:48:04.927Z,96310.59
2022-11-16T15:50:32.971Z,96298.81
2022-11-16T15:53:00.782Z,96310.59
2022-11-16T15:55:35.043Z,96313.88
2022-11-16T15:58:06.464Z,96308.78
2022-11-16T16:00:37.289Z,96319.94
2022-11-16T16:03:08.925Z,96311.41
2022-11-16T16:05:39.213Z,96329.63
2022-11-16T16:08:25.031Z,96312.25
2022-11-16T16:11:00.860Z,96312.25
2022-11-16T16:13:32.714Z,96293.53
2022-11-16T16:16:28.187Z,96319.13
2022-11-16T16:19:00.770Z,96307.03
2022-11-16T16:21:42.510Z,96323.41
2022-11-16T16:24:12.639Z,96321.09
2022-11-16T16:26:41.878Z,96318.66
2022-11-16T16:29:10.173Z,96308.97
2022-11-16T16:31:37.984Z,96339.63
2022-11-16T16:34:12.385Z,96327.66
2022-11-16T16:36:40.364Z,96307.00
2022-11-16T16:39:08.525Z,96308.16
2022-11-16T16:41:36.366Z,96302.06
2022-11-16T16:44:14.504Z,96296.81
2022-11-16T16:46:42.411Z,96273.22
2022-11-16T16:49:10.198Z,96253.50
2022-11-16T16:51:38.341Z,96262.88
2022-11-16T16:54:06.369Z,96271.88
2022-11-16T16:56:34.563Z,96257.75
2022-11-16T16:59:02.512Z,96250.88
2022-11-16T17:01:31.946Z,96231.19
2022-11-16T17:03:59.829Z,96237.28
2022-11-16T17:06:27.672Z,96234.66
2022-11-16T17:08:55.483Z,96247.59
2022-11-16T17:11:23.350Z,96243.16
2022-11-16T17:13:51.130Z,96231.19
2022-11-16T17:16:19.083Z,96226.28
2022-11-16T17:18:48.543Z,96205.16
2022-11-16T17:21:16.444Z,96225.31
2022-11-16T17:23:44.357Z,96196.44
2022-11-16T17:26:12.147Z,96163.69
2022-11-16T17:28:39.998Z,96189.75
2022-11-16T17:31:09.614Z,96180.22
2022-11-16T17:33:38.068Z,96155.16
2022-11-16T17:36:08.889Z,96157.47
2022-11-16T17:38:37.269Z,96145.31
2022-11-16T17:41:06.648Z,96130.91
2022-11-16T17:43:35.234Z,96124.97
2022-11-16T17:46:04.991Z,96149.59
2022-11-16T17:48:32.831Z,96158.28
2022-11-16T17:51:00.640Z,96138.75
2022-11-16T17:53:32.935Z,96137.59
2022-11-16T17:56:00.994Z,96143.00
2022-11-16T17:58:30.050Z,96108.75
2022-11-16T18:00:58.527Z,96119.72
2022-11-16T18:03:27.104Z,96136.78
2022-11-16T18:06:03.003Z,96123.34
2022-11-16T18:08:33.829Z,96117.44
2022-11-16T18:11:06.377Z,96097.78
2022-11-16T18:13:35.046Z,96089.63
2022-11-16T18:16:05.010Z,96088.63
2022-11-16T18:18:33.064Z,96066.97
2022-11-16T18:21:01.087Z,96058.47
2022-11-16T18:23:29.314Z,96053.56
2022-11-16T18:25:58.607Z,96053.91
2022-11-16T18:28:26.888Z,96100.41
2022-11-16T18:31:03.112Z,96106.31
2022-11-16T18:33:31.645Z,96066.97
2022-11-16T18:36:00.651Z,96051.75
2022-11-16T18:38:29.516Z,96056.00
2022-11-16T18:41:06.485Z,96045.88
2022-11-16T18:43:35.387Z,96054.22
2022-11-16T18:46:03.753Z,96068.63
2022-11-16T18:48:31.899Z,96048.97
2022-11-16T18:50:59.902Z,96052.09
2022-11-16T18:53:28.462Z,96029.66
2022-11-16T18:55:58.232Z,96015.03
2022-11-16T19:01:18.017Z,96000.81
2022-11-16T19:03:47.544Z,95999.16
2022-11-16T19:06:17.631Z,96003.25
2022-11-16T19:08:53.726Z,96041.78
2022-11-16T19:11:24.407Z,96026.34
2022-11-16T19:13:55.563Z,96016.66
2022-11-16T19:16:24.945Z,96008.97
2022-11-16T19:18:54.751Z,96000.47
2022-11-16T19:21:22.982Z,95997.19
2022-11-16T19:23:53.844Z,95980.16
2022-11-16T19:26:23.920Z,96009.97
2022-11-16T19:28:54.315Z,95989.03
2022-11-16T19:31:23.718Z,95979.34
2022-11-16T19:33:54.950Z,95968.38
2022-11-16T19:36:23.678Z,95971.00
2022-11-16T19:38:51.996Z,95978.53
2022-11-16T19:41:22.668Z,95967.56
2022-11-16T19:43:57.173Z,95969.19
2022-11-16T19:46:27.252Z,95950.44
2022-11-16T19:48:56.518Z,95965.13
2022-11-16T19:51:26.361Z,95963.84
2022-11-16T19:53:55.058Z,95952.19
2022-11-16T19:56:24.662Z,95929.44
2022-11-16T19:58:54.447Z,95934.50
2022-11-16T20:01:25.395Z,95942.22
2022-11-16T20:03:53.817Z,95926.00
2022-11-16T20:06:23.482Z,95922.56
2022-11-16T20:08:53.901Z,95934.50
2022-11-16T20:11:23.557Z,95943.19
2022-11-16T20:13:52.569Z,95923.56
2022-11-16T20:16:24.018Z,95920.13
2022-11-16T20:18:53.081Z,95905.50
2022-11-16T20:21:23.757Z,95905.50
2022-11-16T20:23:52.601Z,95896.19
2022-11-16T20:26:24.643Z,95905.50
2022-11-16T20:28:53.391Z,95886.22
2022-11-16T20:31:24.733Z,95861.69
2022-11-16T20:33:53.704Z,95898.63
2022-11-16T20:36:22.803Z,95876.91
2022-11-16T20:38:51.421Z,95872.47
2022-11-16T20:41:20.913Z,95872.81
2022-11-16T20:43:51.328Z,95873.28
2022-11-16T20:46:19.959Z,95890.94
2022-11-16T20:48:49.527Z,95879.00
2022-11-16T20:51:18.977Z,95893.75
2022-11-16T20:53:47.970Z,95886.88
2022-11-16T20:56:17.332Z,95886.69
2022-11-16T20:58:45.206Z,95871.47
2022-11-16T21:01:15.486Z,95860.69
2022-11-16T21:03:44.672Z,95859.88
2022-11-16T21:06:14.663Z,95833.84
2022-11-16T21:08:42.849Z,95871.47
2022-11-16T21:11:12.095Z,95865.41
2022-11-16T21:13:58.698Z,95837.47
2022-11-16T21:16:26.997Z,95830.59
2022-11-16T21:18:55.656Z,95860.53
2022-11-16T21:21:25.897Z,95841.41
2022-11-16T21:23:54.969Z,95822.78
2022-11-16T21:26:24.436Z,95824.06
2022-11-16T21:28:52.854Z,95810.31
2022-11-16T21:31:22.722Z,95778.25
2022-11-16T21:33:50.564Z,95745.88
2022-11-16T21:36:19.935Z,95704.53
2022-11-16T21:38:49.595Z,95679.81
2022-11-16T21:41:19.130Z,95633.25
2022-11-16T21:43:47.511Z,95596.84
2022-11-16T21:46:17.240Z,95544.22
2022-11-16T21:48:46.977Z,95508.47
2022-11-16T21:51:16.848Z,95469.63
2022-11-16T21:53:45.175Z,95464.41
2022-11-16T21:56:16.609Z,95462.28
2022-11-16T21:58:45.307Z,95513.53
2022-11-16T22:01:16.023Z,95536.56
2022-11-16T22:03:44.842Z,95540.97
2022-11-16T22:06:32.713Z,95519.56
2022-11-16T22:09:00.857Z,95537.19
2022-11-16T22:11:30.872Z,95522.81
2022-11-16T22:13:58.742Z,95511.91
2022-11-16T22:16:26.564Z,95471.41
2022-11-16T22:18:55.370Z,95427.97
2022-11-16T22:21:23.198Z,95395.66
2022-11-16T22:23:50.986Z,95355.38
2022-11-16T22:26:19.217Z,95307.94
2022-11-16T22:28:48.548Z,95239.13
2022-11-16T22:31:16.373Z,95197.06
2022-11-16T22:33:44.184Z,95154.72
2022-11-16T22:36:13.409Z,95105.84
2022-11-16T22:38:41.205Z,95071.97
2022-11-16T22:41:09.090Z,95025.59
2022-11-16T22:43:37.412Z,94962.91
2022-11-16T22:46:07.334Z,94913.13
2022-11-16T22:48:36.798Z,94889.06
2022-11-16T22:51:07.092Z,94864.31
2022-11-16T22:53:35.650Z,94871.16
2022-11-16T22:56:07.909Z,94928.44
2022-11-16T22:58:36.110Z,94959.56
2022-11-16T23:01:06.204Z,95038.09
2022-11-16T23:03:36.204Z,95063.16
2022-11-16T23:06:05.203Z,95129.31
2022-11-16T23:08:33.412Z,95180.13
2022-11-16T23:11:19.528Z,95216.47
2022-11-16T23:14:05.796Z,95262.94
2022-11-16T23:16:33.858Z,95310.81
2022-11-16T23:19:03.692Z,95339.88
2022-11-16T23:21:49.125Z,95385.56
2022-11-16T23:24:34.166Z,95408.22
2022-11-16T23:27:22.555Z,95406.41
2022-11-16T23:29:50.725Z,95452.44
2022-11-16T23:32:18.618Z,95463.41
2022-11-16T23:34:47.934Z,95473.88
2022-11-16T23:37:15.766Z,95496.53
2022-11-16T23:39:43.530Z,95498.16
2022-11-16T23:42:29.235Z,95503.41
2022-11-16T23:44:57.174Z,95491.31
2022-11-16T23:47:25.103Z,95490.50
2022-11-16T23:49:54.431Z,95473.06
2022-11-16T23:52:22.369Z,95494.09
2022-11-16T23:54:50.268Z,95474.69
2022-11-16T23:57:18.472Z,95470.09
2022-11-16T23:59:46.291Z,95475.31
